My Meet Scores
Rachel Tu, American Gymnastics Training Center - MyMeetScores.com
Top100 | Top Teams | Upcoming Meets | Completed Meets | Latest | Add Scores | Help| Support | Bookmark and Share

Rachel Tu, American Gymnastics Training Center
Personal Bests
LevelVault BarsBeamFloorAA
XB9.2009.400 9.2009.22536.950
XS9.6009.400 9.3509.25037.550
Meet Scores
Date Meet Team Session Level Division Vault Bars Beam Floor AA
2021-04-30 CT 2021 Xcel Bronze/Silver State Championship American Gymnastics Training Center 4 XS Sr C 9.600 1 9.350 3T 9.350 6 9.250 10T 37.550 1
2020-02-08 Mardi Gras Invitational American Gymnastics Training Center B07 XS Division 3 9.150 9 9.250 3 9.300 2T 9.000 9 36.700 4T
2020-01-24 American Invitational 2020 American Gymnastics Training Center 6 XS JR 8.800 8 9.000 4T 9.150 1 9.000 2 35.950 3
2020-01-10 Little Boston Invitational American Gymnastics Training Center C08 XS JR 8.850 9 9.300 5 9.150 7 8.875 10 36.175 6T
2019-05-04 2019 CT XCEL Silver State Championship American Gymnastics Training Center 2 XS Jr F 9.075 9T 9.150 5T 9.175 5T 8.600 13 36.000 8
2019-04-06 Shoreline Twister Invitational American Gymnastics Training Center 2 XS Middle 8.900 10T 8.900 9T 9.200 6T 8.600 15T 35.600 13
2019-02-16 Chelsea Piers Winter Challenge American Gymnastics Training Center F2 XS Middle 9.150 11T 9.400 4T 9.050 17 8.600 26 36.200 11
2019-01-25 Kinetic Kids Invitational 2019 American Gymnastics Training Center 3 XS Jr C 8.825 3 9.175 3 8.800 7 8.725 9 35.525 4
2019-01-18 22nd Annual Star Struck Invitational American Gymnastics Training Center 6D XS Sr A 8.750 7 9.100 7 8.400 12 8.450 10 34.700 10
2018-12-08 American Gymnastics Invitational American Gymnastics Training Center 6 XS Child 8.250 9 8.800 8 9.050 5 9.025 7T 35.125 8
2018-11-17 2018 Connecticut Judge's Cup American Gymnastics Training Center 4 XS 11 yrs. 9.000 14T 9.350 6T 8.550 38T 8.300 37 35.200 22T
2018-11-02 Muriel Grossfeld Invitational American Gymnastics Training Center 5 XS Sr A 9.050 7T 9.225 3 8.800 8 8.600 14T 35.675 6
2018-04-14 2018 Connecticut XB State Championship American Gymnastics Training Center 3 XB Ch 9-11 9.200 26T 9.350 9 8.600 32T 8.600 52T 35.750 33T
2018-02-09 Team Challenge 2018 American Gymnastics Training Center 10R XB Sr A 9.125 5 9.400 6T 9.200 7 9.225 7 36.950 6
2018-01-26 2018 American Invitational American Gymnastics Training Center 5B XB Middle 8.800 5 9.300 2 8.875 9 8.950 6 35.925 5
2018-01-19 Beauty And The Beast Invitational American Gymnastics Training Center 12 XB C 8.100 9T 9.400 3 8.925 7T 9.025 9 35.450 8
2017-05-13 2017 Xcel Bronze Connecticut State Cup American Gymnastics Training Center 1 XB All Ages 9.100 37T 9.200 20T 8.000 59T 8.725 52 35.025 47
2017-03-02 2017 Holiday Costume Cup American Gymnastics Training Center 2 XB Younger 9.200 2T 8.700 9 8.800 7 8.900 5 35.600 5
2017-02-10 Team Challenge 2017 American Gymnastics Training Center 04B XB Inter 8.750 7T 9.000 4T 8.450 18 8.925 3 35.125 9
2017-01-27 24th Annual American Invitational American Gymnastics Training Center 1A XB Child 8.850 9 8.450 16 7.750 21 8.350 16 33.400 18
Get your scores on
a t-shirt, pin, or hoodie